sensor_id;sensor_type;location;lat;lon;timestamp;pressure;altitude;pressure_sealevel;temperature;humidity
11888;BME280;6003;42.756;23.130;2023-09-19T00:00:16;155977.19;;;13.83;100.00
11888;BME280;6003;42.756;23.130;2023-09-19T00:02:45;155962.59;;;13.77;100.00
11888;BME280;6003;42.756;23.130;2023-09-19T00:05:12;155958.66;;;13.76;100.00
11888;BME280;6003;42.756;23.130;2023-09-19T00:07:39;155965.28;;;13.79;100.00
11888;BME280;6003;42.756;23.130;2023-09-19T00:10:07;155966.59;;;13.79;100.00
11888;BME280;6003;42.756;23.130;2023-09-19T00:12:35;155966.59;;;13.79;100.00
11888;BME280;6003;42.756;23.130;2023-09-19T00:15:03;155955.97;;;13.75;100.00
11888;BME280;6003;42.756;23.130;2023-09-19T00:17:32;155948.03;;;13.72;100.00
11888;BME280;6003;42.756;23.130;2023-09-19T00:20:00;155941.38;;;13.69;100.00
11888;BME280;6003;42.756;23.130;2023-09-19T00:22:32;155948.03;;;13.72;100.00
11888;BME280;6003;42.756;23.130;2023-09-19T00:24:59;155953.34;;;13.74;100.00
11888;BME280;6003;42.756;23.130;2023-09-19T00:27:26;155955.97;;;13.75;100.00
11888;BME280;6003;42.756;23.130;2023-09-19T00:29:53;155953.34;;;13.74;100.00
11888;BME280;6003;42.756;23.130;2023-09-19T00:32:21;155950.69;;;13.73;100.00
11888;BME280;6003;42.756;23.130;2023-09-19T00:34:48;155954.66;;;13.74;100.00
11888;BME280;6003;42.756;23.130;2023-09-19T00:37:15;155949.38;;;13.72;100.00
11888;BME280;6003;42.756;23.130;2023-09-19T00:39:43;155945.38;;;13.71;100.00
11888;BME280;6003;42.756;23.130;2023-09-19T00:42:18;155937.44;;;13.68;100.00
11888;BME280;6003;42.756;23.130;2023-09-19T00:44:47;155932.13;;;13.66;100.00
11888;BME280;6003;42.756;23.130;2023-09-19T00:47:16;155932.13;;;13.66;100.00
11888;BME280;6003;42.756;23.130;2023-09-19T00:49:45;155926.88;;;13.64;100.00
11888;BME280;6003;42.756;23.130;2023-09-19T00:52:16;155913.59;;;13.59;100.00
11888;BME280;6003;42.756;23.130;2023-09-19T00:54:45;155912.28;;;13.58;100.00
11888;BME280;6003;42.756;23.130;2023-09-19T00:57:12;155887.09;;;13.48;100.00
11888;BME280;6003;42.756;23.130;2023-09-19T00:59:40;155924.19;;;13.63;100.00
11888;BME280;6003;42.756;23.130;2023-09-19T01:02:07;155926.88;;;13.64;100.00
11888;BME280;6003;42.756;23.130;2023-09-19T01:04:34;155918.88;;;13.61;100.00
11888;BME280;6003;42.756;23.130;2023-09-19T01:07:03;155922.88;;;13.62;100.00
11888;BME280;6003;42.756;23.130;2023-09-19T01:09:30;155912.28;;;13.58;100.00
11888;BME280;6003;42.756;23.130;2023-09-19T01:12:02;155913.59;;;13.59;100.00
11888;BME280;6003;42.756;23.130;2023-09-19T01:14:38;155902.97;;;13.54;100.00
11888;BME280;6003;42.756;23.130;2023-09-19T01:17:14;155910.91;;;13.58;100.00
11888;BME280;6003;42.756;23.130;2023-09-19T01:20:19;155918.88;;;13.61;100.00
11888;BME280;6003;42.756;23.130;2023-09-19T01:23:00;155905.66;;;13.56;100.00
11888;BME280;6003;42.756;23.130;2023-09-19T01:28:43;155884.44;;;13.47;100.00
11888;BME280;6003;42.756;23.130;2023-09-19T01:31:14;155884.44;;;13.47;100.00
11888;BME280;6003;42.756;23.130;2023-09-19T01:33:55;155881.78;;;13.46;100.00
11888;BME280;6003;42.756;23.130;2023-09-19T01:36:25;155868.56;;;13.41;100.00
11888;BME280;6003;42.756;23.130;2023-09-19T01:38:52;155860.63;;;13.38;100.00
11888;BME280;6003;42.756;23.130;2023-09-19T01:41:26;155850.00;;;13.34;100.00
11888;BME280;6003;42.756;23.130;2023-09-19T01:43:58;155847.38;;;13.33;100.00
11888;BME280;6003;42.756;23.130;2023-09-19T01:46:30;155839.41;;;13.30;100.00
11888;BME280;6003;42.756;23.130;2023-09-19T01:49:06;155844.69;;;13.32;100.00
11888;BME280;6003;42.756;23.130;2023-09-19T01:51:45;155842.03;;;13.31;100.00
11888;BME280;6003;42.756;23.130;2023-09-19T01:54:16;155844.69;;;13.32;100.00
11888;BME280;6003;42.756;23.130;2023-09-19T01:56:49;155854.00;;;13.36;100.00
11888;BME280;6003;42.756;23.130;2023-09-19T01:59:21;155847.38;;;13.33;100.00
11888;BME280;6003;42.756;23.130;2023-09-19T02:01:54;155828.78;;;13.26;100.00
11888;BME280;6003;42.756;23.130;2023-09-19T02:04:22;155834.09;;;13.28;100.00
11888;BME280;6003;42.756;23.130;2023-09-19T02:06:48;155832.78;;;13.27;100.00
11888;BME280;6003;42.756;23.130;2023-09-19T02:09:17;155820.78;;;13.23;100.00
11888;BME280;6003;42.756;23.130;2023-09-19T02:11:43;155824.78;;;13.24;100.00
11888;BME280;6003;42.756;23.130;2023-09-19T02:14:10;155811.53;;;13.19;100.00
11888;BME280;6003;42.756;23.130;2023-09-19T02:16:37;155804.91;;;13.17;100.00
11888;BME280;6003;42.756;23.130;2023-09-19T02:19:05;155803.59;;;13.16;100.00
11888;BME280;6003;42.756;23.130;2023-09-19T02:21:33;155798.28;;;13.14;100.00
11888;BME280;6003;42.756;23.130;2023-09-19T02:23:59;155791.66;;;13.12;100.00
11888;BME280;6003;42.756;23.130;2023-09-19T02:26:26;155781.06;;;13.07;100.00
11888;BME280;6003;42.756;23.130;2023-09-19T02:28:53;155779.75;;;13.07;100.00
11888;BME280;6003;42.756;23.130;2023-09-19T02:31:20;155765.19;;;13.01;100.00
11888;BME280;6003;42.756;23.130;2023-09-19T02:33:47;155759.88;;;12.99;100.00
11888;BME280;6003;42.756;23.130;2023-09-19T02:36:15;155753.25;;;12.97;100.00
11888;BME280;6003;42.756;23.130;2023-09-19T02:38:42;155762.50;;;13.00;100.00
11888;BME280;6003;42.756;23.130;2023-09-19T02:41:09;155757.25;;;12.98;100.00
11888;BME280;6003;42.756;23.130;2023-09-19T02:43:36;155754.56;;;12.97;100.00
11888;BME280;6003;42.756;23.130;2023-09-19T02:46:04;155745.31;;;12.94;100.00
11888;BME280;6003;42.756;23.130;2023-09-19T02:48:31;155749.31;;;12.95;100.00
11888;BME280;6003;42.756;23.130;2023-09-19T02:51:00;155757.25;;;12.98;100.00
11888;BME280;6003;42.756;23.130;2023-09-19T02:53:28;155751.94;;;12.96;100.00
11888;BME280;6003;42.756;23.130;2023-09-19T02:55:56;155742.69;;;12.93;100.00
11888;BME280;6003;42.756;23.130;2023-09-19T02:58:24;155737.38;;;12.91;100.00
11888;BME280;6003;42.756;23.130;2023-09-19T03:00:53;155725.47;;;12.86;100.00
11888;BME280;6003;42.756;23.130;2023-09-19T03:03:20;155725.47;;;12.86;100.00
11888;BME280;6003;42.756;23.130;2023-09-19T03:05:47;155745.31;;;12.94;100.00
11888;BME280;6003;42.756;23.130;2023-09-19T03:08:14;155736.06;;;12.90;100.00
11888;BME280;6003;42.756;23.130;2023-09-19T03:10:46;155744.00;;;12.93;100.00
11888;BME280;6003;42.756;23.130;2023-09-19T03:13:13;155738.69;;;12.91;100.00
11888;BME280;6003;42.756;23.130;2023-09-19T03:15:41;155728.13;;;12.87;100.00
11888;BME280;6003;42.756;23.130;2023-09-19T03:18:09;155730.75;;;12.88;100.00
11888;BME280;6003;42.756;23.130;2023-09-19T03:20:36;155732.06;;;12.88;100.00
11888;BME280;6003;42.756;23.130;2023-09-19T03:23:04;155724.13;;;12.85;100.00
11888;BME280;6003;42.756;23.130;2023-09-19T03:25:33;155725.47;;;12.86;100.00
11888;BME280;6003;42.756;23.130;2023-09-19T03:28:01;155724.13;;;12.85;100.00
11888;BME280;6003;42.756;23.130;2023-09-19T03:30:31;155714.88;;;12.82;100.00
11888;BME280;6003;42.756;23.130;2023-09-19T03:32:58;155733.44;;;12.89;100.00
11888;BME280;6003;42.756;23.130;2023-09-19T03:35:25;155741.38;;;12.92;100.00
11888;BME280;6003;42.756;23.130;2023-09-19T03:37:52;155741.38;;;12.92;100.00
11888;BME280;6003;42.756;23.130;2023-09-19T03:40:19;155736.06;;;12.90;100.00
11888;BME280;6003;42.756;23.130;2023-09-19T03:42:47;155712.22;;;12.81;100.00
11888;BME280;6003;42.756;23.130;2023-09-19T03:45:15;155708.25;;;12.79;100.00
11888;BME280;6003;42.756;23.130;2023-09-19T03:47:43;155688.41;;;12.72;100.00
11888;BME280;6003;42.756;23.130;2023-09-19T03:50:12;155687.03;;;12.71;100.00
11888;BME280;6003;42.756;23.130;2023-09-19T03:52:40;155679.09;;;12.68;100.00
11888;BME280;6003;42.756;23.130;2023-09-19T03:55:08;155679.09;;;12.68;100.00
11888;BME280;6003;42.756;23.130;2023-09-19T03:57:35;155691.03;;;12.73;100.00
11888;BME280;6003;42.756;23.130;2023-09-19T04:00:02;155698.97;;;12.76;100.00
11888;BME280;6003;42.756;23.130;2023-09-19T04:02:31;155696.34;;;12.75;100.00
11888;BME280;6003;42.756;23.130;2023-09-19T04:04:59;155675.16;;;12.67;100.00
11888;BME280;6003;42.756;23.130;2023-09-19T04:07:25;155667.22;;;12.63;100.00
11888;BME280;6003;42.756;23.130;2023-09-19T04:09:54;155696.34;;;12.75;100.00
11888;BME280;6003;42.756;23.130;2023-09-19T04:12:21;155714.88;;;12.82;100.00
11888;BME280;6003;42.756;23.130;2023-09-19T04:14:48;155728.13;;;12.87;100.00
11888;BME280;6003;42.756;23.130;2023-09-19T04:17:15;155740.00;;;12.92;100.00
11888;BME280;6003;42.756;23.130;2023-09-19T04:19:43;155738.69;;;12.91;100.00
11888;BME280;6003;42.756;23.130;2023-09-19T04:22:11;155778.44;;;13.06;100.00
11888;BME280;6003;42.756;23.130;2023-09-19T04:24:38;155830.16;;;13.26;100.00
11888;BME280;6003;42.756;23.130;2023-09-19T04:27:05;155896.34;;;13.52;100.00
11888;BME280;6003;42.756;23.130;2023-09-19T04:29:32;155974.53;;;13.82;100.00
11888;BME280;6003;42.756;23.130;2023-09-19T04:32:00;156058.03;;;14.14;100.00
11888;BME280;6003;42.756;23.130;2023-09-19T04:34:29;156149.47;;;14.50;100.00
11888;BME280;6003;42.756;23.130;2023-09-19T04:36:58;156215.84;;;14.75;100.00
11888;BME280;6003;42.756;23.130;2023-09-19T04:39:26;156295.41;;;15.06;100.00
11888;BME280;6003;42.756;23.130;2023-09-19T04:41:53;156308.69;;;15.11;99.34
11888;BME280;6003;42.756;23.130;2023-09-19T04:44:20;156296.75;;;15.06;98.77
11888;BME280;6003;42.756;23.130;2023-09-19T04:46:47;156308.69;;;15.11;99.10
11888;BME280;6003;42.756;23.130;2023-09-19T04:49:14;156361.75;;;15.31;99.08
11888;BME280;6003;42.756;23.130;2023-09-19T04:51:40;156434.72;;;15.60;99.08
11888;BME280;6003;42.756;23.130;2023-09-19T04:54:09;156506.41;;;15.87;97.97
11888;BME280;6003;42.756;23.130;2023-09-19T04:56:36;156567.44;;;16.11;97.09
11888;BME280;6003;42.756;23.130;2023-09-19T04:59:06;156653.75;;;16.44;95.84
11888;BME280;6003;42.756;23.130;2023-09-19T05:01:32;156748.13;;;16.80;94.51
11888;BME280;6003;42.756;23.130;2023-09-19T05:03:59;156896.84;;;17.37;92.54
11888;BME280;6003;42.756;23.130;2023-09-19T05:06:26;156938.06;;;17.53;90.48
11888;BME280;6003;42.756;23.130;2023-09-19T05:08:53;157001.84;;;17.78;89.41
11888;BME280;6003;42.756;23.130;2023-09-19T05:11:21;157044.41;;;17.94;88.14
11888;BME280;6003;42.756;23.130;2023-09-19T05:13:49;157078.97;;;18.08;86.79
11888;BME280;6003;42.756;23.130;2023-09-19T05:16:18;157158.72;;;18.38;85.92
11888;BME280;6003;42.756;23.130;2023-09-19T05:18:44;157213.25;;;18.59;83.93
11888;BME280;6003;42.756;23.130;2023-09-19T05:21:11;157149.41;;;18.35;85.27
11888;BME280;6003;42.756;23.130;2023-09-19T05:23:38;157061.66;;;18.01;86.26
11888;BME280;6003;42.756;23.130;2023-09-19T05:26:05;157015.16;;;17.83;87.93
11888;BME280;6003;42.756;23.130;2023-09-19T05:28:34;156971.25;;;17.66;88.26
11888;BME280;6003;42.756;23.130;2023-09-19T05:31:01;156922.13;;;17.47;88.60
11888;BME280;6003;42.756;23.130;2023-09-19T05:33:28;156890.25;;;17.35;88.83
11888;BME280;6003;42.756;23.130;2023-09-19T05:35:57;156887.53;;;17.34;89.85
11888;BME280;6003;42.756;23.130;2023-09-19T05:38:24;156882.22;;;17.32;90.30
11888;BME280;6003;42.756;23.130;2023-09-19T05:40:52;156868.97;;;17.27;90.62
11888;BME280;6003;42.756;23.130;2023-09-19T05:43:19;156799.88;;;17.00;90.89
11888;BME280;6003;42.756;23.130;2023-09-19T05:45:48;156822.44;;;17.09;91.51
11888;BME280;6003;42.756;23.130;2023-09-19T05:48:17;156850.34;;;17.20;89.92
11888;BME280;6003;42.756;23.130;2023-09-19T05:50:46;156833.09;;;17.13;90.45
11888;BME280;6003;42.756;23.130;2023-09-19T05:53:14;156766.69;;;16.87;89.93
11888;BME280;6003;42.756;23.130;2023-09-19T05:55:41;156773.31;;;16.90;90.36
11888;BME280;6003;42.756;23.130;2023-09-19T05:58:08;156834.41;;;17.13;92.10
11888;BME280;6003;42.756;23.130;2023-09-19T06:00:35;156766.69;;;16.87;90.72
11888;BME280;6003;42.756;23.130;2023-09-19T06:03:04;156745.44;;;16.79;90.60
11888;BME280;6003;42.756;23.130;2023-09-19T06:05:30;156754.72;;;16.83;91.32
11888;BME280;6003;42.756;23.130;2023-09-19T06:07:57;156813.16;;;17.05;91.71
11888;BME280;6003;42.756;23.130;2023-09-19T06:10:25;156837.06;;;17.14;91.31
11888;BME280;6003;42.756;23.130;2023-09-19T06:12:53;156887.53;;;17.34;89.95
11888;BME280;6003;42.756;23.130;2023-09-19T06:15:21;156958.00;;;17.61;90.11
11888;BME280;6003;42.756;23.130;2023-09-19T06:17:53;156940.69;;;17.54;89.74
11888;BME280;6003;42.756;23.130;2023-09-19T06:20:23;156958.00;;;17.61;88.32
11888;BME280;6003;42.756;23.130;2023-09-19T06:22:50;157003.22;;;17.78;90.09
11888;BME280;6003;42.756;23.130;2023-09-19T06:25:18;157007.19;;;17.80;88.38
11888;BME280;6003;42.756;23.130;2023-09-19T06:27:45;157015.16;;;17.83;87.48
11888;BME280;6003;42.756;23.130;2023-09-19T06:30:12;156997.84;;;17.76;88.48
11888;BME280;6003;42.756;23.130;2023-09-19T06:32:39;156991.19;;;17.74;89.00
11888;BME280;6003;42.756;23.130;2023-09-19T06:35:09;157031.09;;;17.89;88.18
11888;BME280;6003;42.756;23.130;2023-09-19T06:37:38;157051.06;;;17.97;86.67
11888;BME280;6003;42.756;23.130;2023-09-19T06:40:07;157089.59;;;18.12;87.21
11888;BME280;6003;42.756;23.130;2023-09-19T06:42:35;157033.78;;;17.90;86.94
11888;BME280;6003;42.756;23.130;2023-09-19T06:45:04;157012.53;;;17.82;86.42
11888;BME280;6003;42.756;23.130;2023-09-19T06:47:31;157005.88;;;17.79;87.20
11888;BME280;6003;42.756;23.130;2023-09-19T06:49:58;156993.84;;;17.75;87.38
11888;BME280;6003;42.756;23.130;2023-09-19T06:52:27;156915.47;;;17.45;88.22
11888;BME280;6003;42.756;23.130;2023-09-19T06:54:56;156935.41;;;17.52;88.88
11888;BME280;6003;42.756;23.130;2023-09-19T06:57:22;156951.34;;;17.58;87.41
11888;BME280;6003;42.756;23.130;2023-09-19T06:59:49;156967.28;;;17.65;87.58
11888;BME280;6003;42.756;23.130;2023-09-19T07:02:16;156980.59;;;17.70;87.78
11888;BME280;6003;42.756;23.130;2023-09-19T07:04:43;157052.38;;;17.97;87.08
11888;BME280;6003;42.756;23.130;2023-09-19T07:07:10;157067.00;;;18.03;87.25
11888;BME280;6003;42.756;23.130;2023-09-19T07:09:39;157074.97;;;18.06;86.20
11888;BME280;6003;42.756;23.130;2023-09-19T07:12:09;157121.50;;;18.24;87.41
11888;BME280;6003;42.756;23.130;2023-09-19T07:14:37;157168.06;;;18.42;86.05
11888;BME280;6003;42.756;23.130;2023-09-19T07:17:04;157193.31;;;18.52;84.59
11888;BME280;6003;42.756;23.130;2023-09-19T07:33:13;157431.44;;;19.43;80.76
11888;BME280;6003;42.756;23.130;2023-09-19T07:35:40;157396.84;;;19.30;80.23
11888;BME280;6003;42.756;23.130;2023-09-19T07:38:07;157352.94;;;19.13;80.42
11888;BME280;6003;42.756;23.130;2023-09-19T07:40:33;157311.72;;;18.97;79.93
11888;BME280;6003;42.756;23.130;2023-09-19T07:43:02;157341.00;;;19.08;80.22
11888;BME280;6003;42.756;23.130;2023-09-19T07:45:30;157302.44;;;18.93;80.51
11888;BME280;6003;42.756;23.130;2023-09-19T07:47:57;157344.97;;;19.10;80.65
11888;BME280;6003;42.756;23.130;2023-09-19T07:50:27;157329.00;;;19.04;80.41
11888;BME280;6003;42.756;23.130;2023-09-19T07:52:54;157318.38;;;19.00;82.03
11888;BME280;6003;42.756;23.130;2023-09-19T07:55:21;157379.56;;;19.23;83.02
11888;BME280;6003;42.756;23.130;2023-09-19T07:57:50;157424.78;;;19.41;81.89
11888;BME280;6003;42.756;23.130;2023-09-19T08:00:18;157390.19;;;19.27;79.67
11888;BME280;6003;42.756;23.130;2023-09-19T08:02:45;157343.63;;;19.09;80.85
11888;BME280;6003;42.756;23.130;2023-09-19T08:05:12;157330.31;;;19.04;81.20
11888;BME280;6003;42.756;23.130;2023-09-19T08:07:43;157341.00;;;19.08;80.65
11888;BME280;6003;42.756;23.130;2023-09-19T08:10:14;157480.66;;;19.62;80.03
11888;BME280;6003;42.756;23.130;2023-09-19T08:12:42;157479.34;;;19.61;78.21
11888;BME280;6003;42.756;23.130;2023-09-19T08:15:12;157533.97;;;19.82;79.28
11888;BME280;6003;42.756;23.130;2023-09-19T08:17:39;157592.50;;;20.05;78.06
11888;BME280;6003;42.756;23.130;2023-09-19T08:20:07;157656.41;;;20.29;77.30
11888;BME280;6003;42.756;23.130;2023-09-19T08:22:43;157749.66;;;20.65;78.10
11888;BME280;6003;42.756;23.130;2023-09-19T08:25:13;157740.34;;;20.62;76.24
11888;BME280;6003;42.756;23.130;2023-09-19T08:27:43;157669.75;;;20.35;76.04
11888;BME280;6003;42.756;23.130;2023-09-19T08:30:13;157659.06;;;20.31;76.18
11888;BME280;6003;42.756;23.130;2023-09-19T08:32:40;157672.41;;;20.36;76.26
11888;BME280;6003;42.756;23.130;2023-09-19T08:35:08;157692.38;;;20.43;75.61
11888;BME280;6003;42.756;23.130;2023-09-19T08:37:35;157688.38;;;20.42;76.72
11888;BME280;6003;42.756;23.130;2023-09-19T08:40:04;157701.69;;;20.47;77.32
11888;BME280;6003;42.756;23.130;2023-09-19T08:42:47;157740.34;;;20.62;76.48
11888;BME280;6003;42.756;23.130;2023-09-19T08:45:14;157740.34;;;20.62;76.63
11888;BME280;6003;42.756;23.130;2023-09-19T08:47:46;157784.31;;;20.79;76.90
11888;BME280;6003;42.756;23.130;2023-09-19T08:50:19;157784.31;;;20.79;74.88
11888;BME280;6003;42.756;23.130;2023-09-19T08:52:47;157880.22;;;21.15;76.25
11888;BME280;6003;42.756;23.130;2023-09-19T08:55:18;157961.53;;;21.47;73.05
11888;BME280;6003;42.756;23.130;2023-09-19T08:57:49;157853.53;;;21.05;73.12
11888;BME280;6003;42.756;23.130;2023-09-19T09:00:18;157908.19;;;21.26;74.81
11888;BME280;6003;42.756;23.130;2023-09-19T09:02:47;157938.88;;;21.38;72.76
11888;BME280;6003;42.756;23.130;2023-09-19T09:05:15;157990.84;;;21.58;73.60
11888;BME280;6003;42.756;23.130;2023-09-19T09:07:48;157938.88;;;21.38;72.56
11888;BME280;6003;42.756;23.130;2023-09-19T09:10:18;157973.50;;;21.51;73.43
11888;BME280;6003;42.756;23.130;2023-09-19T09:12:48;158034.78;;;21.75;72.24
11888;BME280;6003;42.756;23.130;2023-09-19T09:15:17;158042.78;;;21.78;70.75
11888;BME280;6003;42.756;23.130;2023-09-19T09:17:48;158165.47;;;22.25;71.94
11888;BME280;6003;42.756;23.130;2023-09-19T09:20:16;158226.81;;;22.48;69.98
11888;BME280;6003;42.756;23.130;2023-09-19T09:22:51;158289.47;;;22.72;68.07
11888;BME280;6003;42.756;23.130;2023-09-19T09:25:20;158242.81;;;22.55;67.91
11888;BME280;6003;42.756;23.130;2023-09-19T09:27:58;158240.16;;;22.53;67.35
11888;BME280;6003;42.756;23.130;2023-09-19T09:30:33;158274.78;;;22.67;69.83
11888;BME280;6003;42.756;23.130;2023-09-19T09:33:08;158189.47;;;22.34;68.60
11888;BME280;6003;42.756;23.130;2023-09-19T09:35:36;158181.47;;;22.31;68.37
11888;BME280;6003;42.756;23.130;2023-09-19T09:38:04;158161.47;;;22.23;69.45
11888;BME280;6003;42.756;23.130;2023-09-19T09:40:46;158200.13;;;22.38;69.26
11888;BME280;6003;42.756;23.130;2023-09-19T09:43:26;158213.47;;;22.43;70.17
11888;BME280;6003;42.756;23.130;2023-09-19T09:46:09;158194.81;;;22.36;68.18
11888;BME280;6003;42.756;23.130;2023-09-19T09:49:00;158210.81;;;22.42;67.97
11888;BME280;6003;42.756;23.130;2023-09-19T09:52:00;158266.78;;;22.64;67.72
11888;BME280;6003;42.756;23.130;2023-09-19T09:54:31;158152.13;;;22.20;68.28
11888;BME280;6003;42.756;23.130;2023-09-19T09:57:05;158077.44;;;21.91;69.13
11888;BME280;6003;42.756;23.130;2023-09-19T09:59:47;158156.16;;;22.21;70.30
11888;BME280;6003;42.756;23.130;2023-09-19T10:02:15;158168.13;;;22.26;69.46
11888;BME280;6003;42.756;23.130;2023-09-19T10:04:48;158146.78;;;22.18;69.46
11888;BME280;6003;42.756;23.130;2023-09-19T10:07:28;158208.16;;;22.41;68.92
11888;BME280;6003;42.756;23.130;2023-09-19T10:09:59;158282.78;;;22.70;67.98
11888;BME280;6003;42.756;23.130;2023-09-19T10:12:38;158304.13;;;22.78;68.27
11888;BME280;6003;42.756;23.130;2023-09-19T10:15:11;158306.81;;;22.79;68.04
11888;BME280;6003;42.756;23.130;2023-09-19T10:17:42;158328.16;;;22.87;66.36
11888;BME280;6003;42.756;23.130;2023-09-19T10:20:13;158306.81;;;22.79;68.02
11888;BME280;6003;42.756;23.130;2023-09-19T10:22:48;158338.81;;;22.91;65.96
11888;BME280;6003;42.756;23.130;2023-09-19T10:25:25;158420.25;;;23.23;67.88
11888;BME280;6003;42.756;23.130;2023-09-19T10:27:56;158429.56;;;23.26;64.50
11888;BME280;6003;42.756;23.130;2023-09-19T10:30:25;158437.56;;;23.29;65.47
11888;BME280;6003;42.756;23.130;2023-09-19T10:33:00;158442.91;;;23.31;67.42
11888;BME280;6003;42.756;23.130;2023-09-19T10:35:27;158434.91;;;23.28;64.86
11888;BME280;6003;42.756;23.130;2023-09-19T10:37:54;158429.56;;;23.26;65.42
11888;BME280;6003;42.756;23.130;2023-09-19T10:40:24;158461.56;;;23.38;65.75
11888;BME280;6003;42.756;23.130;2023-09-19T10:43:01;158494.94;;;23.51;65.00
11888;BME280;6003;42.756;23.130;2023-09-19T10:45:33;158501.63;;;23.54;64.57
11888;BME280;6003;42.756;23.130;2023-09-19T10:48:01;158502.94;;;23.54;64.90
11888;BME280;6003;42.756;23.130;2023-09-19T10:50:35;158531.00;;;23.65;63.94
11888;BME280;6003;42.756;23.130;2023-09-19T10:53:06;158576.41;;;23.82;65.13
11888;BME280;6003;42.756;23.130;2023-09-19T10:55:36;158537.63;;;23.68;65.42
11888;BME280;6003;42.756;23.130;2023-09-19T10:58:05;158555.03;;;23.74;64.55
11888;BME280;6003;42.756;23.130;2023-09-19T11:00:51;158490.94;;;23.50;65.33
11888;BME280;6003;42.756;23.130;2023-09-19T11:03:19;158520.28;;;23.61;65.36
11888;BME280;6003;42.756;23.130;2023-09-19T11:06:05;158490.94;;;23.50;65.92
11888;BME280;6003;42.756;23.130;2023-09-19T11:08:54;158539.00;;;23.68;66.58
11888;BME280;6003;42.756;23.130;2023-09-19T11:11:42;158540.31;;;23.69;66.26
11888;BME280;6003;42.756;23.130;2023-09-19T11:14:37;158474.91;;;23.43;65.19
11888;BME280;6003;42.756;23.130;2023-09-19T11:17:32;158453.56;;;23.35;64.74
11888;BME280;6003;42.756;23.130;2023-09-19T11:20:21;158400.22;;;23.15;65.65
11888;BME280;6003;42.756;23.130;2023-09-19T11:23:21;158352.22;;;22.96;66.42
11888;BME280;6003;42.756;23.130;2023-09-19T11:25:52;158368.22;;;23.03;66.01
11888;BME280;6003;42.756;23.130;2023-09-19T11:28:30;158368.22;;;23.03;66.63
11888;BME280;6003;42.756;23.130;2023-09-19T11:30:58;158344.16;;;22.93;67.07
11888;BME280;6003;42.756;23.130;2023-09-19T11:33:26;158360.22;;;23.00;66.50
11888;BME280;6003;42.756;23.130;2023-09-19T11:36:00;158380.19;;;23.07;65.97
11888;BME280;6003;42.756;23.130;2023-09-19T11:38:57;158421.56;;;23.23;67.08
11888;BME280;6003;42.756;23.130;2023-09-19T11:41:39;158472.28;;;23.42;66.98
11888;BME280;6003;42.756;23.130;2023-09-19T11:44:31;158445.56;;;23.32;66.61
11888;BME280;6003;42.756;23.130;2023-09-19T11:47:01;158437.56;;;23.29;66.75
11888;BME280;6003;42.756;23.130;2023-09-19T11:49:30;158402.88;;;23.16;65.79
11888;BME280;6003;42.756;23.130;2023-09-19T11:51:58;158440.22;;;23.30;66.60
11888;BME280;6003;42.756;23.130;2023-09-19T11:54:27;158426.91;;;23.25;66.17
11888;BME280;6003;42.756;23.130;2023-09-19T11:56:57;158393.53;;;23.12;64.78
11888;BME280;6003;42.756;23.130;2023-09-19T11:59:25;158416.22;;;23.21;67.28
11888;BME280;6003;42.756;23.130;2023-09-19T12:01:54;158400.22;;;23.15;66.13
11888;BME280;6003;42.756;23.130;2023-09-19T12:04:34;158397.56;;;23.14;67.02
11888;BME280;6003;42.756;23.130;2023-09-19T12:19:37;158656.44;;;24.13;65.11
11888;BME280;6003;42.756;23.130;2023-09-19T12:22:04;158689.84;;;24.26;65.00
11888;BME280;6003;42.756;23.130;2023-09-19T12:24:32;158707.19;;;24.32;64.62
11888;BME280;6003;42.756;23.130;2023-09-19T12:27:02;158759.31;;;24.52;63.41
11888;BME280;6003;42.756;23.130;2023-09-19T12:29:32;158747.28;;;24.48;63.43
11888;BME280;6003;42.756;23.130;2023-09-19T12:31:59;158728.56;;;24.41;64.90
11888;BME280;6003;42.756;23.130;2023-09-19T12:34:30;158707.19;;;24.32;64.13
11888;BME280;6003;42.756;23.130;2023-09-19T12:37:09;158672.47;;;24.19;64.67
11888;BME280;6003;42.756;23.130;2023-09-19T12:39:42;158591.09;;;23.88;64.28
11888;BME280;6003;42.756;23.130;2023-09-19T12:42:14;158563.06;;;23.77;65.13
11888;BME280;6003;42.756;23.130;2023-09-19T12:44:43;158567.03;;;23.79;65.04
11888;BME280;6003;42.756;23.130;2023-09-19T12:47:12;158552.34;;;23.73;64.94
11888;BME280;6003;42.756;23.130;2023-09-19T12:50:09;158573.69;;;23.81;64.58
11888;BME280;6003;42.756;23.130;2023-09-19T12:52:43;158569.72;;;23.80;64.73
11888;BME280;6003;42.756;23.130;2023-09-19T12:55:23;158580.38;;;23.84;65.90
11888;BME280;6003;42.756;23.130;2023-09-19T12:58:07;158580.38;;;23.84;64.80
11888;BME280;6003;42.756;23.130;2023-09-19T13:00:36;158617.75;;;23.98;65.25
11888;BME280;6003;42.756;23.130;2023-09-19T13:03:24;158640.44;;;24.07;64.85
11888;BME280;6003;42.756;23.130;2023-09-19T13:05:53;158639.09;;;24.06;64.37
11888;BME280;6003;42.756;23.130;2023-09-19T13:08:24;158641.75;;;24.07;65.39
11888;BME280;6003;42.756;23.130;2023-09-19T13:11:03;158685.81;;;24.24;64.35
11888;BME280;6003;42.756;23.130;2023-09-19T13:13:32;158716.53;;;24.36;63.38
11888;BME280;6003;42.756;23.130;2023-09-19T13:16:01;158693.81;;;24.27;62.88
11888;BME280;6003;42.756;23.130;2023-09-19T13:18:29;158700.50;;;24.30;64.08
11888;BME280;6003;42.756;23.130;2023-09-19T13:21:09;158723.19;;;24.39;62.90
11888;BME280;6003;42.756;23.130;2023-09-19T13:23:39;158721.88;;;24.38;63.63
11888;BME280;6003;42.756;23.130;2023-09-19T13:26:07;158703.16;;;24.31;62.97
11888;BME280;6003;42.756;23.130;2023-09-19T13:28:34;158697.84;;;24.29;62.35
11888;BME280;6003;42.756;23.130;2023-09-19T13:31:01;158708.50;;;24.33;63.58